Aérodrome :
LOGIN :

S'inscrire | Disclaimer

   EN    FR    IT 

 










Légende :    VFR   VFR Marginal   IFR   IFR Intensif   IFR Très Intensif
Visi : 
Plafond : 
>= 8 km
>= 3000ft
5 à 8 km
1000 à 3000 ft
1500m à 5 km
500 à 1000 ft
800 à 1500m
200 à 500 ft
< 800m
< 200 ft
Symboles :   Orages  Brouillard  Fortes neiges  Fortes précipitations  Vent > 20 kt
SIGMETs :   Divers  Orages  Givrage  Turbulence  Onde Orograph.  Cendres Volcan.







- Altitude de l'aérodrome : 291 ft
- Code IATA : ORY
- Voir les cartes d'approche


LFPO - Paris-Orly

DERNIER METAR :
  • 211500Z 31007KT 260V020 CAVOK 26/12 Q1014 NOSIG

METARs EXPIRÉS :
  • 211430Z 31003KT 230V030 CAVOK 25/11 Q1013 NOSIG
  • 211400Z 29007KT 250V330 CAVOK 26/11 Q1013 NOSIG
  • 211330Z VRB03KT CAVOK 27/11 Q1013 NOSIG
  • 211300Z VRB07KT CAVOK 27/08 Q1014 NOSIG
  • 211230Z 24004KT 160V320 CAVOK 26/08 Q1014 NOSIG

TAF TAF LFPO
Valide du 21 à 12h jusqu'au 22 à 18h UTC


211100Z 2112/2218 30008KT CAVOK
ATIS : +33 1 49 75 65 80
Pas de NOTAMs connus pour ce terrain.



MET'MAP, la Météo Aéronautique d'un coup d'oeil ! - Copyright ORBIFLY Décembre 2007 - Disclaimer

ORBIFLY MET'MAP TEAM :

Programmation & Développement : Alexandra Zaïnal
Conception & Développement : Baudouin d'Aumeries
Co-Programmation & Développement : Marc-Olivier Méhu
Soutien technique & logistique : Manuel Goepfert

Contact : metmap@orbifly.com




SOURCES & CREDITS :

   NOAA